Abel, Alabama
Current Conditions -  °F | °C
As of 7:53 AM on Friday 24 Oct 2014 (Local Time) from KANB Reporting Station
Clear Clear  
Wind Chill: 51°   Ceiling: Unl
Heat Index: 51°   Visibility: 10mi
Dew Point: 47°   Wind: 5mph
Humidity: 86%   Direction: 110°ESE
Pressure: 30.07"   Gusts: NA
Location:  33.4483°N, 85.6826°W
Report Text: KANB 241253Z AUTO 11004KT 10SM CLR 11/08 A3007 RMK AO2 SLP186 T01060083
Loading
Personal Weather Stations






























Interactive Weather Map New forecast layout! Learn more

10-Day Weather Forecast

Advertisements
Track Severe Weather on mobile